Time;durP1;ratioP1;P1;durP2;ratioP2;P2;SDS_P1;SDS_P2;PMS_P1;PMS_P2;Temp;Humidity;BMP_temperature;BMP_pressure;BME280_temperature;BME280_humidity;BME280_pressure;Samples;Min_cycle;Max_cycle;Signal;HPM_P1;HPM_P2
2024/04/14 00:01:47;;;;;;;2.03;1.00;;;16.10;99.90;;;;;;15335097;19;20146;-83
2024/04/14 00:06:49;;;;;;;1.45;1.00;;;16.20;99.90;;;;;;15331510;19;20118;-86
2024/04/14 00:11:49;;;;;;;2.25;1.10;;;16.20;99.90;;;;;;15326696;19;20154;-84
2024/04/14 00:16:50;;;;;;;1.48;0.77;;;16.30;99.90;;;;;;15327129;19;20126;-85
2024/04/14 00:21:51;;;;;;;1.27;0.70;;;16.30;99.90;;;;;;15311053;19;20195;-82
2024/04/14 00:26:51;;;;;;;2.05;1.00;;;16.50;99.90;;;;;;15316843;19;20142;-81
2024/04/14 00:31:52;;;;;;;2.47;1.10;;;16.50;99.90;;;;;;15310695;19;20142;-81
2024/04/14 00:36:52;;;;;;;3.20;1.00;;;16.30;99.90;;;;;;15313580;19;20134;-83
2024/04/14 00:41:53;;;;;;;1.83;1.30;;;16.20;99.90;;;;;;15314698;19;20146;-81
2024/04/14 00:46:54;;;;;;;2.67;1.00;;;16.00;99.90;;;;;;15306769;19;20175;-82
2024/04/14 00:51:55;;;;;;;1.88;0.90;;;16.00;99.90;;;;;;15307220;19;20138;-82
2024/04/14 00:56:57;;;;;;;1.60;0.70;;;16.00;99.90;;;;;;15304479;19;20130;-82
2024/04/14 01:01:58;;;;;;;2.10;0.90;;;16.20;99.90;;;;;;15308353;19;20150;-81
2024/04/14 01:06:59;;;;;;;1.25;1.02;;;16.60;99.90;;;;;;15316460;19;20468;-82
2024/04/14 01:11:59;;;;;;;2.20;0.65;;;16.80;99.90;;;;;;15328826;19;20173;-82
2024/04/14 01:17:00;;;;;;;1.48;0.80;;;16.90;99.90;;;;;;15329940;19;20134;-82
2024/04/14 01:22:00;;;;;;;3.00;0.80;;;17.00;99.90;;;;;;15316999;19;20177;-85
2024/04/14 01:27:01;;;;;;;1.17;0.70;;;17.10;99.90;;;;;;15308956;19;20143;-81
2024/04/14 01:32:02;;;;;;;1.27;0.70;;;16.80;99.90;;;;;;15308146;19;20165;-81
2024/04/14 01:37:02;;;;;;;1.58;0.70;;;16.70;99.90;;;;;;15304824;19;20145;-82
2024/04/14 01:42:03;;;;;;;1.80;0.82;;;16.90;99.90;;;;;;15318154;19;20146;-82
2024/04/14 01:47:04;;;;;;;3.15;0.93;;;17.00;99.90;;;;;;15320428;19;20481;-82
2024/04/14 01:52:05;;;;;;;1.05;0.60;;;17.10;99.90;;;;;;15304912;19;20778;-82
2024/04/14 01:57:05;;;;;;;1.77;0.90;;;17.20;99.90;;;;;;15305231;19;20135;-81
2024/04/14 02:02:06;;;;;;;1.02;0.55;;;17.40;99.90;;;;;;15299901;19;20268;-82
2024/04/14 02:07:06;;;;;;;1.60;0.75;;;17.40;99.90;;;;;;15299750;19;20146;-82
2024/04/14 02:12:07;;;;;;;1.23;0.65;;;17.50;99.90;;;;;;15309059;19;20170;-82
2024/04/14 02:17:07;;;;;;;0.93;0.68;;;17.50;99.90;;;;;;15317002;19;20123;-82
2024/04/14 02:22:08;;;;;;;1.50;0.75;;;17.40;99.90;;;;;;15316106;19;20193;-82
2024/04/14 02:27:09;;;;;;;3.47;0.77;;;17.40;99.90;;;;;;15324928;19;20926;-82
2024/04/14 02:32:09;;;;;;;1.52;0.80;;;17.40;99.90;;;;;;15334665;19;20145;-81
2024/04/14 02:37:10;;;;;;;1.10;0.65;;;17.30;99.90;;;;;;15339054;19;20119;-82
2024/04/14 02:42:11;;;;;;;1.05;0.70;;;17.40;99.90;;;;;;15319651;19;20569;-82
2024/04/14 02:47:11;;;;;;;0.82;0.60;;;17.40;99.90;;;;;;15306653;19;20142;-82
2024/04/14 02:52:12;;;;;;;1.08;0.70;;;17.40;99.90;;;;;;15305618;19;20632;-83
2024/04/14 02:57:13;;;;;;;1.58;0.85;;;17.40;99.90;;;;;;15308028;19;20146;-82
2024/04/14 03:02:13;;;;;;;1.52;0.82;;;17.40;99.90;;;;;;15301779;19;20330;-81
2024/04/14 03:07:14;;;;;;;1.85;0.90;;;17.50;99.90;;;;;;15298306;19;20173;-82
2024/04/14 03:12:14;;;;;;;2.75;0.75;;;17.50;99.90;;;;;;15297428;19;20146;-83
2024/04/14 03:17:16;;;;;;;1.05;0.60;;;17.40;99.90;;;;;;15297418;19;20126;-82
2024/04/14 03:22:17;;;;;;;2.30;0.90;;;17.30;99.90;;;;;;15296724;19;20150;-81
2024/04/14 03:27:17;;;;;;;1.88;0.80;;;17.30;99.90;;;;;;15298336;19;20150;-82
2024/04/14 03:32:18;;;;;;;1.15;0.70;;;17.40;99.90;;;;;;15314251;19;20145;-82
2024/04/14 03:37:19;;;;;;;1.25;0.70;;;17.30;99.90;;;;;;15312046;19;20131;-82
2024/04/14 03:42:19;;;;;;;1.48;0.77;;;17.20;99.90;;;;;;15308402;19;21140;-82
2024/04/14 03:47:20;;;;;;;1.50;0.70;;;17.10;99.90;;;;;;15312053;19;20123;-82
2024/04/14 03:52:20;;;;;;;1.13;0.65;;;17.10;99.90;;;;;;15314279;19;20139;-82
2024/04/14 03:57:21;;;;;;;0.88;0.63;;;17.10;99.90;;;;;;15313618;19;20138;-82
2024/04/14 04:02:21;;;;;;;1.50;0.80;;;17.10;99.90;;;;;;15312119;19;20162;-82
2024/04/14 04:07:22;;;;;;;1.17;0.65;;;17.00;99.90;;;;;;15311196;19;20542;-82
2024/04/14 04:12:22;;;;;;;2.20;1.23;;;17.00;99.90;;;;;;15310808;19;20680;-82
2024/04/14 04:17:23;;;;;;;2.03;0.80;;;17.00;99.90;;;;;;15313576;19;20142;-82
2024/04/14 04:22:23;;;;;;;1.95;0.70;;;17.00;99.90;;;;;;15308599;19;20489;-82
2024/04/14 04:27:24;;;;;;;0.90;0.60;;;17.10;99.90;;;;;;15307631;19;20588;-82
2024/04/14 04:32:24;;;;;;;1.77;0.90;;;17.10;99.90;;;;;;15305898;19;20154;-81
2024/04/14 04:37:25;;;;;;;1.30;0.73;;;17.10;99.90;;;;;;15303806;19;20161;-81
2024/04/14 04:42:25;;;;;;;1.40;0.60;;;17.00;99.90;;;;;;15301928;19;20186;-81
2024/04/14 04:47:26;;;;;;;1.67;1.00;;;16.90;99.90;;;;;;15306252;19;20139;-81
2024/04/14 04:52:26;;;;;;;1.20;0.60;;;16.80;99.90;;;;;;15305517;19;20158;-81
2024/04/14 04:57:27;;;;;;;2.08;0.90;;;16.60;99.90;;;;;;15304975;19;20167;-81
2024/04/14 05:02:27;;;;;;;1.63;0.70;;;16.40;99.90;;;;;;15299340;19;20179;-81
2024/04/14 05:07:28;;;;;;;1.77;0.80;;;16.20;99.90;;;;;;15308961;19;20660;-82
2024/04/14 05:12:28;;;;;;;1.08;0.70;;;16.20;99.90;;;;;;15304047;19;20720;-81
2024/04/14 05:17:29;;;;;;;1.17;0.70;;;16.20;99.90;;;;;;15304099;19;20139;-81
2024/04/14 05:22:29;;;;;;;1.35;0.95;;;16.20;99.90;;;;;;15317253;19;20170;-82
2024/04/14 05:27:30;;;;;;;0.77;0.50;;;15.80;99.90;;;;;;15316672;19;20537;-81
2024/04/14 05:32:30;;;;;;;1.38;0.70;;;16.00;99.90;;;;;;15302945;19;20138;-81
2024/04/14 05:37:31;;;;;;;2.13;0.80;;;16.10;99.90;;;;;;15316933;19;20138;-81
2024/04/14 05:42:31;;;;;;;2.60;0.80;;;15.70;99.90;;;;;;15304944;19;20234;-81
2024/04/14 05:47:32;;;;;;;1.75;0.68;;;15.80;99.90;;;;;;15302067;19;20734;-81
2024/04/14 05:52:32;;;;;;;1.88;0.75;;;15.70;99.90;;;;;;15299976;19;20177;-80
2024/04/14 05:57:33;;;;;;;1.50;0.77;;;16.20;99.90;;;;;;15315390;19;20155;-80
2024/04/14 06:02:34;;;;;;;1.10;0.70;;;16.50;99.90;;;;;;15359132;19;20138;-80
2024/04/14 06:07:34;;;;;;;1.50;0.80;;;16.50;99.90;;;;;;15312896;19;20209;-81
2024/04/14 06:12:35;;;;;;;1.30;0.60;;;16.10;99.90;;;;;;15307828;19;20518;-81
2024/04/14 06:17:35;;;;;;;1.70;0.80;;;16.00;99.90;;;;;;15302913;19;20149;-80
2024/04/14 06:22:36;;;;;;;1.75;0.80;;;16.20;99.90;;;;;;15304131;19;20181;-80
2024/04/14 06:27:37;;;;;;;2.47;1.63;;;16.50;99.90;;;;;;15297424;19;20168;-80
2024/04/14 06:32:38;;;;;;;2.05;0.80;;;16.80;99.90;;;;;;15304214;19;20209;-81
2024/04/14 06:37:38;;;;;;;2.20;1.10;;;17.00;99.90;;;;;;15297520;19;20118;-81
2024/04/14 06:42:39;;;;;;;2.30;1.00;;;17.20;99.90;;;;;;15304346;19;20142;-81
2024/04/14 06:47:40;;;;;;;1.23;0.80;;;17.60;99.90;;;;;;15294282;19;20728;-81
2024/04/14 06:52:40;;;;;;;6.97;1.00;;;17.80;99.90;;;;;;15295565;19;20142;-81
2024/04/14 06:57:41;;;;;;;2.47;0.88;;;18.20;99.90;;;;;;15296844;19;20144;-80
2024/04/14 07:02:41;;;;;;;2.70;1.23;;;18.50;99.90;;;;;;15297095;19;20169;-81
2024/04/14 07:07:42;;;;;;;3.38;1.10;;;18.90;99.90;;;;;;15309986;19;20871;-81
2024/04/14 07:12:42;;;;;;;2.60;1.00;;;19.20;99.90;;;;;;15315653;19;20174;-81
2024/04/14 07:17:43;;;;;;;2.30;1.00;;;19.40;99.90;;;;;;15310492;19;20473;-81
2024/04/14 07:22:44;;;;;;;1.65;0.85;;;19.70;99.90;;;;;;15320377;19;20174;-81
2024/04/14 07:27:46;;;;;;;2.15;1.00;;;19.90;99.90;;;;;;15322766;19;20271;-80
2024/04/14 07:32:47;;;;;;;1.60;1.30;;;20.20;99.90;;;;;;15310213;19;20609;-81
2024/04/14 07:37:47;;;;;;;4.13;2.00;;;20.40;99.90;;;;;;15308839;19;20147;-81
2024/04/14 07:42:48;;;;;;;1.77;1.10;;;20.30;99.90;;;;;;15311946;19;20174;-82
2024/04/14 07:47:48;;;;;;;2.83;1.38;;;20.40;99.90;;;;;;15311690;19;20114;-81
2024/04/14 07:52:49;;;;;;;3.30;1.35;;;20.60;99.90;;;;;;15312774;19;20135;-82
2024/04/14 07:57:49;;;;;;;2.63;1.20;;;20.40;99.90;;;;;;15308599;19;20120;-81
2024/04/14 08:02:50;;;;;;;2.53;0.95;;;20.20;99.90;;;;;;15311117;19;20230;-81
2024/04/14 08:07:50;;;;;;;3.03;1.00;;;20.40;99.90;;;;;;15329436;19;20123;-85
2024/04/14 08:12:51;;;;;;;2.15;0.90;;;20.60;99.90;;;;;;15316730;19;20146;-86
2024/04/14 08:17:51;;;;;;;2.80;1.10;;;20.70;99.90;;;;;;15303858;19;20122;-85
2024/04/14 08:22:52;;;;;;;1.98;1.17;;;21.00;99.90;;;;;;15310575;19;20182;-83
2024/04/14 08:27:52;;;;;;;1.70;0.90;;;20.90;99.90;;;;;;15311668;19;20129;-85
2024/04/14 08:32:53;;;;;;;1.65;0.90;;;21.00;99.90;;;;;;15309309;19;20910;-85
2024/04/14 08:37:53;;;;;;;1.90;0.98;;;21.20;99.90;;;;;;15308519;19;20211;-86
2024/04/14 08:42:55;;;;;;;2.13;1.13;;;21.30;99.90;;;;;;15311165;19;20754;-85
2024/04/14 08:47:56;;;;;;;1.88;0.80;;;21.50;99.90;;;;;;15282118;19;20154;-87
2024/04/14 08:52:57;;;;;;;2.80;1.10;;;21.70;99.90;;;;;;15283771;19;20170;-84
2024/04/14 08:57:57;;;;;;;2.20;1.10;;;21.80;99.90;;;;;;15280430;19;20202;-83
2024/04/14 09:02:59;;;;;;;2.17;1.15;;;21.90;99.90;;;;;;15286392;19;20182;-87
2024/04/14 09:08:01;;;;;;;2.22;0.80;;;22.00;99.90;;;;;;15284546;19;20134;-84
2024/04/14 09:13:03;;;;;;;4.40;1.13;;;22.00;99.90;;;;;;15281194;19;20195;-84
2024/04/14 09:18:03;;;;;;;2.63;1.02;;;22.10;99.90;;;;;;15276305;19;20135;-85
2024/04/14 09:23:04;;;;;;;2.03;1.10;;;22.00;99.90;;;;;;15275279;19;20134;-83
2024/04/14 09:28:10;;;;;;;2.30;1.20;;;21.90;99.90;;;;;;15273975;19;20746;-84
2024/04/14 09:33:11;;;;;;;2.53;1.10;;;21.90;99.90;;;;;;15281551;19;20652;-84
2024/04/14 09:38:16;;;;;;;2.85;1.35;;;21.60;99.90;;;;;;15276573;19;20810;-84
2024/04/14 09:43:19;;;;;;;5.35;1.75;;;21.80;99.90;;;;;;15281643;19;20177;-83
2024/04/14 09:48:22;;;;;;;1.80;0.90;;;22.10;99.90;;;;;;15303506;19;20127;-83
2024/04/14 09:53:24;;;;;;;3.42;1.00;;;22.00;99.90;;;;;;15307861;19;20192;-83
2024/04/14 09:58:24;;;;;;;2.30;1.00;;;22.10;99.90;;;;;;15301664;19;20139;-84
2024/04/14 10:03:27;;;;;;;1.67;1.00;;;22.20;99.90;;;;;;15303364;19;20158;-84
2024/04/14 10:08:33;;;;;;;1.48;0.88;;;22.20;99.90;;;;;;15300964;19;20151;-84
2024/04/14 10:13:48;;;;;;;1.80;1.13;;;22.40;99.90;;;;;;15302006;19;20162;-84
2024/04/14 10:18:49;;;;;;;2.47;1.05;;;22.60;99.90;;;;;;15301492;19;21139;-81
2024/04/14 10:23:55;;;;;;;2.38;1.10;;;22.80;99.90;;;;;;15302305;19;20158;-82
2024/04/14 10:28:56;;;;;;;2.15;1.13;;;23.00;99.90;;;;;;15302766;19;20185;-85
2024/04/14 10:34:03;;;;;;;2.50;1.35;;;23.10;99.90;;;;;;15306811;19;20170;-81
2024/04/14 10:39:05;;;;;;;2.38;1.15;;;23.20;99.90;;;;;;15294822;19;20169;-82
2024/04/14 10:44:15;;;;;;;3.88;1.55;;;22.90;99.90;;;;;;15301535;19;20169;-81
2024/04/14 10:49:19;;;;;;;2.60;1.20;;;22.80;99.90;;;;;;15302814;19;20173;-84
2024/04/14 10:54:19;;;;;;;1.92;1.02;;;22.90;99.90;;;;;;15304426;19;20162;-84
2024/04/14 10:59:20;;;;;;;2.35;1.10;;;22.90;99.90;;;;;;15305544;19;20133;-82
2024/04/14 11:04:21;;;;;;;3.05;1.13;;;23.10;99.90;;;;;;15320522;19;20241;-83
2024/04/14 11:09:23;;;;;;;2.88;1.40;;;23.20;99.90;;;;;;15319731;19;20148;-83
2024/04/14 11:14:24;;;;;;;1.95;1.00;;;23.40;99.90;;;;;;15314021;19;20806;-84
2024/04/14 11:19:25;;;;;;;1.88;1.10;;;23.70;99.90;;;;;;15311257;19;20160;-84
2024/04/14 11:24:25;;;;;;;2.03;0.90;;;24.00;99.90;;;;;;15305941;19;20181;-84
2024/04/14 11:29:26;;;;;;;2.17;1.35;;;24.40;99.90;;;;;;15315895;19;20143;-83
2024/04/14 11:34:27;;;;;;;2.38;1.20;;;24.70;99.90;;;;;;15309553;19;20151;-82
2024/04/14 11:39:27;;;;;;;3.08;1.15;;;24.80;99.90;;;;;;15310948;19;20601;-83
2024/04/14 11:44:28;;;;;;;1.85;1.00;;;24.90;99.90;;;;;;15302247;19;20178;-84
2024/04/14 11:49:28;;;;;;;2.30;1.10;;;24.80;99.90;;;;;;15296683;19;20134;-84
2024/04/14 11:54:29;;;;;;;3.72;1.10;;;24.60;99.90;;;;;;15310498;19;20225;-83
2024/04/14 11:59:29;;;;;;;3.42;1.17;;;24.30;99.90;;;;;;15305350;19;20532;-82
2024/04/14 12:04:30;;;;;;;1.92;0.90;;;23.90;99.90;;;;;;15310940;19;20162;-82
2024/04/14 12:09:31;;;;;;;2.15;1.20;;;24.30;99.90;;;;;;15265553;19;20210;-84
2024/04/14 12:14:31;;;;;;;1.35;0.90;;;24.50;99.90;;;;;;15301241;19;20482;-83
2024/04/14 12:19:32;;;;;;;3.33;1.02;;;24.60;99.90;;;;;;15308202;19;20154;-84
2024/04/14 12:24:32;;;;;;;2.28;1.10;;;24.70;99.90;;;;;;15310561;19;20153;-84
2024/04/14 12:29:33;;;;;;;2.65;1.15;;;24.80;99.90;;;;;;15310712;19;20135;-85
2024/04/14 12:34:34;;;;;;;3.10;1.40;;;24.70;99.90;;;;;;15311524;19;20162;-84
2024/04/14 12:39:35;;;;;;;2.28;1.10;;;24.70;99.90;;;;;;15310865;19;20126;-84
2024/04/14 12:44:35;;;;;;;2.25;0.98;;;24.60;99.90;;;;;;15313544;19;20169;-83
2024/04/14 12:49:36;;;;;;;1.85;1.08;;;24.40;99.90;;;;;;15305257;19;20142;-85
2024/04/14 12:54:36;;;;;;;2.40;1.10;;;24.70;99.90;;;;;;15306529;19;20166;-84
2024/04/14 12:59:37;;;;;;;2.25;1.20;;;24.90;99.90;;;;;;15316465;19;20134;-85
2024/04/14 13:04:37;;;;;;;3.58;1.30;;;25.00;99.90;;;;;;15328909;19;20141;-84
2024/04/14 13:09:38;;;;;;;2.28;1.23;;;25.10;99.90;;;;;;15315107;19;20593;-84
2024/04/14 13:14:39;;;;;;;3.00;0.93;;;25.20;99.90;;;;;;15315934;19;20178;-84
2024/04/14 13:19:39;;;;;;;1.92;0.90;;;24.80;99.90;;;;;;15309676;19;20467;-86
2024/04/14 13:24:40;;;;;;;1.92;1.08;;;24.80;99.90;;;;;;15315099;19;20137;-84
2024/04/14 13:29:40;;;;;;;2.17;0.95;;;24.80;99.90;;;;;;15316126;19;20115;-85
2024/04/14 13:34:41;;;;;;;2.42;0.80;;;24.70;99.90;;;;;;15318154;19;20158;-86
2024/04/14 13:39:41;;;;;;;2.17;1.02;;;24.60;99.90;;;;;;15308999;19;20137;-84
2024/04/14 13:44:42;;;;;;;2.50;1.02;;;24.60;99.90;;;;;;15314904;19;20487;-86
2024/04/14 13:49:43;;;;;;;2.00;0.80;;;24.70;99.90;;;;;;15301805;19;20115;-85
2024/04/14 13:54:43;;;;;;;2.63;1.20;;;24.50;99.90;;;;;;15309790;19;20162;-85
2024/04/14 13:59:44;;;;;;;3.28;1.30;;;24.90;99.90;;;;;;15302145;19;20133;-86
2024/04/14 14:04:45;;;;;;;1.77;0.95;;;25.20;99.90;;;;;;15302465;19;20184;-85
2024/04/14 14:09:46;;;;;;;2.13;1.10;;;25.30;99.90;;;;;;15302887;19;20580;-85
2024/04/14 14:14:55;;;;;;;1.90;0.90;;;24.60;99.90;;;;;;15306960;19;20146;-84
2024/04/14 14:19:56;;;;;;;3.80;1.02;;;24.60;99.90;;;;;;15301670;19;20163;-85
2024/04/14 14:24:57;;;;;;;2.05;0.95;;;24.70;99.90;;;;;;15309670;19;20509;-84
2024/04/14 14:29:57;;;;;;;2.40;1.02;;;24.50;99.90;;;;;;15308357;19;20137;-86
2024/04/14 14:40:17;;;;;;;1.77;1.00;;;24.90;99.90;;;;;;15299438;19;20126;-84
2024/04/14 14:45:18;;;;;;;3.38;0.90;;;24.80;99.90;;;;;;15301806;19;20597;-85
2024/04/14 14:50:18;;;;;;;2.13;0.80;;;24.90;99.90;;;;;;15297108;19;20198;-88
2024/04/14 14:55:20;;;;;;;2.65;1.15;;;24.80;99.90;;;;;;15297176;19;20593;-87
2024/04/14 15:00:20;;;;;;;1.40;0.80;;;24.60;99.90;;;;;;15291464;19;20152;-87
2024/04/14 15:05:21;;;;;;;2.47;0.90;;;24.50;99.90;;;;;;15298414;19;20161;-87
2024/04/14 15:10:22;;;;;;;1.70;1.00;;;24.40;99.90;;;;;;15295715;19;20134;-83
2024/04/14 15:15:22;;;;;;;1.40;0.80;;;24.60;99.90;;;;;;15289787;19;20523;-80
2024/04/14 15:20:23;;;;;;;1.73;1.00;;;24.70;99.90;;;;;;15294183;19;20137;-81
2024/04/14 15:25:25;;;;;;;1.85;0.98;;;24.20;99.90;;;;;;15303861;19;20150;-81
2024/04/14 15:30:26;;;;;;;3.22;1.20;;;24.30;99.90;;;;;;15327880;19;20138;-80
2024/04/14 15:35:27;;;;;;;2.83;1.20;;;24.30;99.90;;;;;;15308208;19;20993;-81
2024/04/14 15:40:31;;;;;;;1.48;0.75;;;24.40;99.90;;;;;;15314184;19;20139;-85
2024/04/14 15:45:31;;;;;;;1.25;0.80;;;24.20;99.90;;;;;;15322412;19;20381;-85
2024/04/14 15:50:32;;;;;;;1.52;0.80;;;24.30;99.90;;;;;;15315580;19;20121;-81
2024/04/14 15:55:37;;;;;;;1.58;1.00;;;24.20;99.90;;;;;;15305914;19;20173;-80
2024/04/14 16:00:37;;;;;;;2.63;1.27;;;24.10;99.90;;;;;;15308295;19;20162;-80
2024/04/14 16:05:38;;;;;;;2.70;1.30;;;24.10;99.90;;;;;;15309539;19;20162;-80
2024/04/14 16:10:38;;;;;;;3.70;1.88;;;24.30;99.90;;;;;;15314500;19;20138;-80
2024/04/14 16:15:39;;;;;;;1.67;0.90;;;24.40;99.90;;;;;;15306782;19;20170;-79
2024/04/14 16:20:39;;;;;;;1.70;1.15;;;24.10;99.90;;;;;;15304037;19;20165;-79
2024/04/14 16:25:40;;;;;;;2.63;1.13;;;24.20;99.90;;;;;;15301868;19;20946;-81
2024/04/14 16:30:40;;;;;;;1.75;1.05;;;24.00;99.90;;;;;;15298933;19;20138;-81
2024/04/14 16:35:41;;;;;;;2.15;1.00;;;24.00;99.90;;;;;;15313633;19;20237;-80
2024/04/14 16:40:42;;;;;;;1.65;0.90;;;24.10;99.90;;;;;;15305187;19;20142;-82
2024/04/14 16:45:44;;;;;;;2.00;1.00;;;24.10;99.90;;;;;;15308758;19;20146;-82
2024/04/14 16:50:44;;;;;;;2.47;1.13;;;23.90;99.90;;;;;;15303056;19;20158;-82
2024/04/14 16:55:45;;;;;;;2.33;1.05;;;23.60;99.90;;;;;;15306468;19;20662;-83
2024/04/14 17:00:46;;;;;;;2.78;1.10;;;23.50;99.90;;;;;;15301053;19;20459;-83
2024/04/14 17:05:47;;;;;;;2.05;1.08;;;23.60;99.90;;;;;;15308374;19;20812;-83
2024/04/14 17:10:48;;;;;;;3.40;1.10;;;23.40;99.90;;;;;;15315468;19;20530;-83
2024/04/14 17:15:49;;;;;;;3.42;1.30;;;23.40;99.90;;;;;;15323721;19;20154;-83
2024/04/14 17:20:50;;;;;;;2.05;1.17;;;23.30;99.90;;;;;;15319138;19;20142;-82
2024/04/14 17:25:50;;;;;;;1.73;1.00;;;23.10;99.90;;;;;;15305959;19;20150;-84
2024/04/14 17:30:51;;;;;;;1.83;1.15;;;23.00;99.90;;;;;;15298652;19;20122;-83
2024/04/14 17:35:51;;;;;;;2.70;1.08;;;22.60;99.90;;;;;;15302686;19;20166;-83
2024/04/14 17:40:52;;;;;;;1.65;1.00;;;22.70;99.90;;;;;;15300065;19;20125;-82
2024/04/14 17:45:52;;;;;;;1.95;1.10;;;22.50;99.90;;;;;;15301894;19;20603;-83
2024/04/14 17:50:53;;;;;;;3.78;1.05;;;22.40;99.90;;;;;;15302168;19;20150;-84
2024/04/14 17:55:54;;;;;;;1.58;0.93;;;22.10;99.90;;;;;;15317320;19;20175;-83
2024/04/14 18:00:58;;;;;;;4.90;1.02;;;21.90;99.90;;;;;;15298317;19;20138;-83
2024/04/14 18:05:58;;;;;;;1.58;0.73;;;21.50;99.90;;;;;;15304135;19;20598;-84
2024/04/14 18:10:59;;;;;;;2.13;0.90;;;21.20;99.90;;;;;;15301357;19;20131;-82
2024/04/14 18:15:59;;;;;;;1.55;0.80;;;21.10;99.90;;;;;;15304451;19;20174;-83
2024/04/14 18:21:00;;;;;;;1.33;0.68;;;20.80;99.90;;;;;;15305905;19;20590;-83
2024/04/14 18:26:02;;;;;;;1.30;0.70;;;20.50;99.90;;;;;;15309374;19;20735;-83
2024/04/14 18:31:03;;;;;;;2.67;0.75;;;20.30;99.90;;;;;;15302065;19;20138;-83
2024/04/14 18:36:04;;;;;;;1.98;0.80;;;20.10;99.90;;;;;;15304442;19;20237;-84
2024/04/14 18:41:05;;;;;;;1.33;0.70;;;20.00;99.90;;;;;;15295754;19;20161;-83
2024/04/14 18:46:05;;;;;;;1.98;1.00;;;19.90;99.90;;;;;;15302563;19;20157;-84
2024/04/14 18:51:06;;;;;;;1.80;1.00;;;19.80;99.90;;;;;;15295008;19;20141;-81
2024/04/14 18:56:09;;;;;;;1.85;0.90;;;19.60;99.90;;;;;;15298824;19;20491;-81
2024/04/14 19:01:10;;;;;;;3.05;0.90;;;19.50;99.90;;;;;;15300674;19;20130;-83
2024/04/14 19:06:11;;;;;;;1.67;0.93;;;19.30;99.90;;;;;;15312794;19;20157;-84
2024/04/14 19:11:11;;;;;;;2.85;1.00;;;19.20;99.90;;;;;;15312035;19;20151;-83
2024/04/14 19:16:13;;;;;;;1.45;0.90;;;19.30;99.90;;;;;;15313631;19;20197;-84
2024/04/14 19:21:14;;;;;;;1.35;0.80;;;19.20;99.90;;;;;;15309358;19;20122;-84
2024/04/14 19:26:16;;;;;;;1.83;1.00;;;19.20;99.90;;;;;;15321879;19;20126;-84
2024/04/14 19:31:19;;;;;;;1.75;0.80;;;19.20;99.90;;;;;;15310941;19;20134;-85
2024/04/14 19:36:20;;;;;;;1.77;1.00;;;19.40;99.90;;;;;;15319890;19;20692;-84
2024/04/14 19:41:20;;;;;;;3.38;1.02;;;19.30;99.90;;;;;;15309780;19;20142;-83
2024/04/14 19:46:21;;;;;;;1.77;0.80;;;19.10;99.90;;;;;;15324505;19;20126;-84
2024/04/14 19:51:21;;;;;;;1.48;0.85;;;18.90;99.90;;;;;;15316406;19;20122;-84
2024/04/14 19:56:22;;;;;;;1.75;0.98;;;18.80;99.90;;;;;;15323153;19;20684;-81
2024/04/14 20:01:24;;;;;;;1.80;1.00;;;18.70;99.90;;;;;;15313203;19;20197;-81
2024/04/14 20:06:24;;;;;;;1.58;0.82;;;18.50;99.90;;;;;;15331295;19;20154;-82
2024/04/14 20:11:25;;;;;;;3.05;1.00;;;18.40;99.90;;;;;;15322430;19;20130;-82
2024/04/14 20:16:26;;;;;;;2.40;0.90;;;18.40;99.90;;;;;;15318610;19;20157;-81
2024/04/14 20:21:26;;;;;;;1.33;0.65;;;18.40;99.90;;;;;;15303115;19;20214;-82
2024/04/14 20:26:27;;;;;;;1.35;0.70;;;18.30;99.90;;;;;;15314737;19;20134;-84
2024/04/14 20:31:28;;;;;;;2.80;1.08;;;18.30;99.90;;;;;;15303232;19;20517;-84
2024/04/14 20:36:29;;;;;;;1.65;0.77;;;18.20;99.90;;;;;;15313666;19;20134;-83
2024/04/14 20:41:29;;;;;;;2.55;0.82;;;18.20;99.90;;;;;;15298519;19;20126;-83
2024/04/14 20:46:30;;;;;;;1.20;0.70;;;18.20;99.90;;;;;;15315960;19;20150;-84
2024/04/14 20:51:30;;;;;;;1.83;0.80;;;18.20;99.90;;;;;;15308115;19;20134;-82
2024/04/14 20:56:31;;;;;;;1.55;0.70;;;18.20;99.90;;;;;;15320209;19;20130;-82
2024/04/14 21:01:31;;;;;;;1.60;0.80;;;18.20;99.90;;;;;;15297407;19;20118;-82
2024/04/14 21:06:32;;;;;;;2.13;0.70;;;18.10;99.90;;;;;;15310009;19;20189;-82
2024/04/14 21:11:32;;;;;;;1.83;0.80;;;18.00;99.90;;;;;;15301359;19;20115;-82
2024/04/14 21:16:33;;;;;;;1.33;0.77;;;18.10;99.90;;;;;;15307946;19;20158;-81
2024/04/14 21:21:33;;;;;;;1.23;0.80;;;18.20;99.90;;;;;;15295409;19;20122;-82
2024/04/14 21:26:34;;;;;;;1.83;0.80;;;18.10;99.90;;;;;;15307035;19;20147;-82
2024/04/14 21:31:34;;;;;;;1.63;0.82;;;18.10;99.90;;;;;;15299822;19;20897;-83
2024/04/14 21:36:35;;;;;;;1.42;0.65;;;18.10;99.90;;;;;;15306330;19;20142;-81
2024/04/14 21:41:35;;;;;;;1.55;0.70;;;18.00;99.90;;;;;;15295738;19;20130;-80
2024/04/14 21:46:36;;;;;;;1.65;0.70;;;18.10;99.90;;;;;;15309085;19;20501;-80
2024/04/14 21:51:37;;;;;;;1.55;0.65;;;18.30;99.90;;;;;;15298243;19;20514;-82
2024/04/14 21:56:37;;;;;;;3.17;0.70;;;18.10;99.90;;;;;;15297445;19;20154;-81
2024/04/14 22:01:38;;;;;;;1.50;0.68;;;18.00;99.90;;;;;;15294426;19;20122;-80
2024/04/14 22:06:39;;;;;;;2.30;0.70;;;18.00;99.90;;;;;;15298339;19;20126;-81
2024/04/14 22:11:39;;;;;;;1.92;0.90;;;18.00;99.90;;;;;;15301168;19;20126;-81
2024/04/14 22:16:40;;;;;;;1.63;0.90;;;18.20;99.90;;;;;;15300008;19;20672;-81
2024/04/14 22:21:40;;;;;;;2.53;0.93;;;18.20;99.90;;;;;;15316822;19;20181;-81
2024/04/14 22:26:41;;;;;;;0.98;0.60;;;18.10;99.90;;;;;;15322890;19;20185;-80
2024/04/14 22:31:42;;;;;;;1.88;0.80;;;17.70;99.90;;;;;;15311542;19;20126;-81
2024/04/14 22:36:42;;;;;;;1.15;0.73;;;17.60;99.90;;;;;;15297517;19;20728;-81
2024/04/14 22:41:43;;;;;;;1.77;0.70;;;17.50;99.90;;;;;;15293714;19;20160;-81
2024/04/14 22:46:43;;;;;;;2.75;0.82;;;17.40;99.90;;;;;;15297656;19;20225;-80
2024/04/14 22:51:43;;;;;;;1.02;0.60;;;17.30;99.90;;;;;;15297292;19;20703;-80
2024/04/14 22:56:44;;;;;;;2.65;1.00;;;17.50;99.90;;;;;;15293037;19;20130;-80
2024/04/14 23:01:44;;;;;;;1.08;0.57;;;17.70;99.90;;;;;;15290146;19;20162;-80
2024/04/14 23:06:45;;;;;;;1.98;0.80;;;17.40;99.90;;;;;;15302425;19;20149;-80
2024/04/14 23:11:45;;;;;;;2.05;0.90;;;17.20;99.90;;;;;;15293387;19;20198;-79
2024/04/14 23:16:46;;;;;;;3.08;1.10;;;17.30;99.90;;;;;;15292037;19;20146;-80
2024/04/14 23:21:47;;;;;;;2.53;1.00;;;17.20;99.90;;;;;;15288429;19;20165;-80
2024/04/14 23:26:47;;;;;;;1.48;0.70;;;17.10;99.90;;;;;;15293289;19;20981;-80
2024/04/14 23:31:48;;;;;;;1.90;0.73;;;17.40;99.90;;;;;;15296741;19;20126;-80
2024/04/14 23:36:50;;;;;;;2.45;1.00;;;17.50;99.90;;;;;;15314015;19;20139;-80
2024/04/14 23:41:51;;;;;;;1.45;0.80;;;17.40;99.90;;;;;;15342322;19;20155;-80
2024/04/14 23:46:51;;;;;;;1.35;0.65;;;17.30;99.90;;;;;;15344014;19;20126;-81
2024/04/14 23:51:52;;;;;;;1.95;0.77;;;17.40;99.90;;;;;;15318897;19;20158;-81
2024/04/14 23:56:54;;;;;;;2.85;0.82;;;17.30;99.90;;;;;;15313590;19;20248;-81
